createdAt,value
2017-10-12T00:01:50.910Z,981.75
2017-10-12T00:02:50.789Z,981.77
2017-10-12T00:04:44.198Z,981.74
2017-10-12T00:05:43.488Z,981.76
2017-10-12T00:07:36.242Z,981.77
2017-10-12T00:08:36.086Z,981.75
2017-10-12T00:10:28.954Z,981.78
2017-10-12T00:11:28.830Z,981.80
2017-10-12T00:13:21.593Z,981.85
2017-10-12T00:14:21.512Z,981.80
2017-10-12T00:16:14.571Z,981.81
2017-10-12T00:17:14.267Z,981.79
2017-10-12T00:19:06.916Z,981.82
2017-10-12T00:20:06.828Z,981.77
2017-10-12T00:21:59.647Z,981.79
2017-10-12T00:22:59.519Z,981.78
2017-10-12T00:24:52.328Z,981.77
2017-10-12T00:25:52.244Z,981.78
2017-10-12T00:27:45.040Z,981.76
2017-10-12T00:28:44.966Z,981.77
2017-10-12T00:30:37.683Z,981.79
2017-10-12T00:31:37.573Z,981.76
2017-10-12T00:33:30.819Z,981.77
2017-10-12T00:34:30.735Z,981.72
2017-10-12T00:36:23.528Z,981.75
2017-10-12T00:37:23.403Z,981.75
2017-10-12T00:39:16.209Z,981.76
2017-10-12T00:40:16.159Z,981.76
2017-10-12T00:42:08.998Z,981.74
2017-10-12T00:43:08.912Z,981.75
2017-10-12T00:45:01.491Z,981.78
2017-10-12T00:46:01.409Z,981.78
2017-10-12T00:47:54.202Z,981.81
2017-10-12T00:48:54.079Z,981.81
2017-10-12T00:50:46.998Z,981.80
2017-10-12T00:51:46.736Z,981.84
2017-10-12T00:53:39.595Z,981.88
2017-10-12T00:54:39.394Z,981.85
2017-10-12T00:56:32.206Z,981.83
2017-10-12T00:57:32.084Z,981.88
2017-10-12T00:59:24.975Z,981.89
2017-10-12T01:00:24.887Z,981.92
2017-10-12T01:02:18.245Z,981.86
2017-10-12T01:03:18.054Z,981.86
2017-10-12T01:05:11.106Z,981.87
2017-10-12T01:06:10.697Z,981.89
2017-10-12T01:08:03.497Z,981.90
2017-10-12T01:09:03.345Z,981.88
2017-10-12T01:10:56.241Z,981.85
2017-10-12T01:11:56.160Z,981.85
2017-10-12T01:13:49.038Z,981.89
2017-10-12T01:14:48.840Z,981.90
2017-10-12T01:16:41.575Z,981.93
2017-10-12T01:17:41.492Z,981.89
2017-10-12T01:19:34.300Z,981.90
2017-10-12T01:20:34.146Z,981.91
2017-10-12T01:22:26.945Z,981.89
2017-10-12T01:23:26.859Z,981.88
2017-10-12T01:25:19.741Z,981.85
2017-10-12T01:26:19.623Z,981.84
2017-10-12T01:28:12.360Z,981.80
2017-10-12T01:29:12.362Z,981.79
2017-10-12T01:31:05.087Z,981.82
2017-10-12T01:32:04.957Z,981.82
2017-10-12T01:33:57.736Z,981.84
2017-10-12T01:34:57.646Z,981.79
2017-10-12T01:36:50.517Z,981.75
2017-10-12T01:37:50.321Z,981.77
2017-10-12T01:39:43.277Z,981.76
2017-10-12T01:40:42.984Z,981.80
2017-10-12T01:42:35.796Z,981.84
2017-10-12T01:43:35.642Z,981.83
2017-10-12T01:45:28.498Z,981.84
2017-10-12T01:46:28.350Z,981.87
2017-10-12T01:48:21.100Z,981.86
2017-10-12T01:49:21.043Z,981.88
2017-10-12T01:51:13.883Z,981.92
2017-10-12T01:52:13.777Z,981.91
2017-10-12T01:54:06.445Z,981.88
2017-10-12T01:55:06.327Z,981.86
2017-10-12T01:56:59.107Z,981.82
2017-10-12T01:57:58.981Z,981.82
2017-10-12T01:59:52.178Z,981.79
2017-10-12T02:00:52.091Z,981.76
2017-10-12T02:02:44.980Z,981.76
2017-10-12T02:03:44.805Z,981.76
2017-10-12T02:05:37.499Z,981.75
2017-10-12T02:06:37.425Z,981.75
2017-10-12T02:08:30.194Z,981.80
2017-10-12T02:09:30.069Z,981.79
2017-10-12T02:11:22.820Z,981.78
2017-10-12T02:12:22.743Z,981.81
2017-10-12T02:14:15.691Z,981.75
2017-10-12T02:15:15.464Z,981.72
2017-10-12T02:17:08.148Z,981.73
2017-10-12T02:18:08.127Z,981.74
2017-10-12T02:20:00.862Z,981.77
2017-10-12T02:21:00.731Z,981.71
2017-10-12T02:22:53.525Z,981.69
2017-10-12T02:23:53.440Z,981.68
2017-10-12T02:25:46.259Z,981.70
2017-10-12T02:26:46.153Z,981.75
2017-10-12T02:28:38.892Z,981.79
2017-10-12T02:29:38.816Z,981.78
2017-10-12T02:31:31.644Z,981.78
2017-10-12T02:32:31.486Z,981.77
2017-10-12T02:34:24.498Z,981.77
2017-10-12T02:35:24.354Z,981.80
2017-10-12T02:37:17.586Z,981.85
2017-10-12T02:38:17.502Z,981.82
2017-10-12T02:40:10.614Z,981.81
2017-10-12T02:41:10.157Z,981.83
2017-10-12T02:43:02.874Z,981.80
2017-10-12T02:44:02.792Z,981.78
2017-10-12T02:45:55.581Z,981.81
2017-10-12T02:46:55.453Z,981.78
2017-10-12T02:48:48.304Z,981.79
2017-10-12T02:49:48.144Z,981.82
2017-10-12T02:51:41.048Z,981.84
2017-10-12T02:52:40.923Z,981.88
2017-10-12T02:54:33.512Z,981.92
2017-10-12T02:55:33.434Z,981.92
2017-10-12T02:57:26.204Z,981.98
2017-10-12T02:58:26.078Z,981.96
2017-10-12T03:00:18.827Z,981.88
2017-10-12T03:01:18.750Z,981.92
2017-10-12T03:03:11.609Z,981.92
2017-10-12T03:04:11.398Z,981.93
2017-10-12T03:06:04.177Z,981.87
2017-10-12T03:07:04.054Z,981.79
2017-10-12T03:08:56.812Z,981.83
2017-10-12T03:09:56.727Z,981.81
2017-10-12T03:11:49.589Z,981.88
2017-10-12T03:12:49.432Z,981.92
2017-10-12T03:14:42.993Z,981.89
2017-10-12T03:15:42.114Z,981.89
2017-10-12T03:17:34.907Z,981.97
2017-10-12T03:18:34.729Z,981.97
2017-10-12T03:20:27.452Z,981.96
2017-10-12T03:21:27.368Z,981.96
2017-10-12T03:23:20.247Z,981.93
2017-10-12T03:24:20.166Z,981.94
2017-10-12T03:26:13.010Z,981.97
2017-10-12T03:27:12.779Z,981.98
2017-10-12T03:29:05.608Z,981.98
2017-10-12T03:30:05.417Z,981.93
2017-10-12T03:31:58.695Z,981.92
2017-10-12T03:32:58.569Z,981.81
2017-10-12T03:34:51.312Z,981.73
2017-10-12T03:35:51.250Z,981.74
2017-10-12T03:37:44.198Z,981.78
2017-10-12T03:38:43.872Z,981.80
2017-10-12T03:40:36.603Z,981.86
2017-10-12T03:41:36.531Z,981.85
2017-10-12T03:43:29.301Z,981.89
2017-10-12T03:44:29.188Z,981.86
2017-10-12T03:46:21.926Z,981.85
2017-10-12T03:47:21.864Z,981.85
2017-10-12T03:49:14.788Z,981.79
2017-10-12T03:50:14.714Z,981.77
2017-10-12T03:52:07.522Z,981.79
2017-10-12T03:53:07.313Z,981.80
2017-10-12T03:55:00.029Z,981.87
2017-10-12T03:55:59.944Z,981.93
2017-10-12T03:57:52.861Z,982.00
2017-10-12T03:58:52.732Z,981.99
2017-10-12T04:00:45.539Z,982.01
2017-10-12T04:01:45.468Z,982.02
2017-10-12T04:03:38.211Z,981.99
2017-10-12T04:04:38.112Z,982.02
2017-10-12T04:06:30.856Z,981.98
2017-10-12T04:07:30.772Z,981.96
2017-10-12T04:09:23.652Z,981.98
2017-10-12T04:10:23.522Z,981.98
2017-10-12T04:12:16.470Z,981.93
2017-10-12T04:13:16.186Z,981.93
2017-10-12T04:15:09.227Z,981.98
2017-10-12T04:16:08.843Z,981.95
2017-10-12T04:18:02.102Z,981.91
2017-10-12T04:19:01.981Z,981.93
2017-10-12T04:20:54.785Z,981.96
2017-10-12T04:21:54.708Z,981.99
2017-10-12T04:23:47.579Z,982.06
2017-10-12T04:24:47.362Z,981.99
2017-10-12T04:26:40.208Z,981.92
2017-10-12T04:27:40.022Z,981.92
2017-10-12T04:29:33.283Z,982.01
2017-10-12T04:30:33.154Z,982.00
2017-10-12T04:32:25.980Z,981.99
2017-10-12T04:33:25.891Z,981.94
2017-10-12T04:35:18.775Z,981.92
2017-10-12T04:36:18.691Z,981.98
2017-10-12T04:38:11.430Z,982.05
2017-10-12T04:39:11.322Z,982.02
2017-10-12T04:41:04.394Z,982.04
2017-10-12T04:42:03.930Z,982.09
2017-10-12T04:43:56.719Z,982.16
2017-10-12T04:44:56.593Z,982.13
2017-10-12T04:46:49.702Z,982.12
2017-10-12T04:47:49.580Z,982.06
2017-10-12T04:49:42.754Z,982.05
2017-10-12T04:50:42.222Z,982.08
2017-10-12T04:52:35.095Z,982.11
2017-10-12T04:53:34.886Z,982.13
2017-10-12T04:55:27.713Z,982.17
2017-10-12T04:56:27.586Z,982.18
2017-10-12T04:58:20.442Z,982.15
2017-10-12T04:59:20.336Z,982.13
2017-10-12T05:01:13.116Z,982.11
2017-10-12T05:02:12.968Z,982.08
2017-10-12T05:04:05.871Z,982.08
2017-10-12T05:05:05.671Z,982.05
2017-10-12T05:06:58.348Z,982.03
2017-10-12T05:07:58.262Z,982.06
2017-10-12T05:09:51.163Z,982.07
2017-10-12T05:10:51.053Z,982.10
2017-10-12T05:12:43.812Z,982.09
2017-10-12T05:13:43.709Z,982.12
2017-10-12T05:15:36.447Z,981.99
2017-10-12T05:16:36.323Z,982.01
2017-10-12T05:18:29.073Z,981.96
2017-10-12T05:19:28.991Z,981.93
2017-10-12T05:21:21.863Z,981.93
2017-10-12T05:22:21.734Z,981.97
2017-10-12T05:24:14.605Z,982.01
2017-10-12T05:25:14.416Z,982.01
2017-10-12T05:27:07.169Z,982.11
2017-10-12T05:28:07.045Z,982.16
2017-10-12T05:29:59.900Z,982.22
2017-10-12T05:30:59.772Z,982.15
2017-10-12T05:32:52.527Z,982.18
2017-10-12T05:33:52.442Z,982.27
2017-10-12T05:35:45.292Z,982.29
2017-10-12T05:36:45.099Z,982.29
2017-10-12T05:38:37.839Z,982.33
2017-10-12T05:39:37.847Z,982.40
2017-10-12T05:41:30.552Z,982.38
2017-10-12T05:42:30.417Z,982.35
2017-10-12T05:44:23.399Z,982.32
2017-10-12T05:45:23.319Z,982.36
2017-10-12T05:47:16.688Z,982.39
2017-10-12T05:48:16.469Z,982.42
2017-10-12T05:50:09.466Z,982.43
2017-10-12T05:51:09.158Z,982.50
2017-10-12T05:53:01.900Z,982.43
2017-10-12T05:54:01.762Z,982.39
2017-10-12T05:55:54.556Z,982.47
2017-10-12T05:56:54.429Z,982.41
2017-10-12T05:58:47.271Z,982.44
2017-10-12T05:59:47.188Z,982.45
2017-10-12T06:01:40.727Z,982.47
2017-10-12T06:02:40.348Z,982.45
2017-10-12T06:04:33.074Z,982.44
2017-10-12T06:05:32.998Z,982.46
2017-10-12T06:07:25.863Z,982.42
2017-10-12T06:08:25.734Z,982.38
2017-10-12T06:10:18.565Z,982.47
2017-10-12T06:11:18.401Z,982.47
2017-10-12T06:13:11.260Z,982.45
2017-10-12T06:14:11.095Z,982.45
2017-10-12T06:16:04.399Z,982.44
2017-10-12T06:17:04.201Z,982.50
2017-10-12T06:18:57.013Z,982.55
2017-10-12T06:19:56.925Z,982.55
2017-10-12T06:21:50.392Z,982.53
2017-10-12T06:22:50.257Z,982.57
2017-10-12T06:24:43.517Z,982.61
2017-10-12T06:25:43.335Z,982.62
2017-10-12T06:27:36.217Z,982.67
2017-10-12T06:28:36.057Z,982.61
2017-10-12T06:30:28.771Z,982.66
2017-10-12T06:31:28.684Z,982.64
2017-10-12T06:33:21.833Z,982.62
2017-10-12T06:34:21.783Z,982.68
2017-10-12T06:36:15.374Z,982.67
2017-10-12T06:37:14.442Z,982.67
2017-10-12T06:39:07.082Z,982.72
2017-10-12T06:40:07.001Z,982.77
2017-10-12T06:41:59.727Z,982.79
2017-10-12T06:42:59.594Z,982.77
2017-10-12T06:44:52.854Z,982.80
2017-10-12T06:45:52.773Z,982.79
2017-10-12T06:47:45.617Z,982.81
2017-10-12T06:48:46.018Z,982.84
2017-10-12T06:50:38.235Z,982.89
2017-10-12T06:51:38.145Z,982.87
2017-10-12T06:53:30.968Z,982.91
2017-10-12T06:54:30.839Z,982.90
2017-10-12T06:56:23.624Z,982.91
2017-10-12T06:57:23.498Z,982.83
2017-10-12T06:59:16.471Z,982.86
2017-10-12T07:00:16.154Z,982.90
2017-10-12T07:02:09.450Z,982.92
2017-10-12T07:03:09.326Z,982.96
2017-10-12T07:05:02.039Z,982.96
2017-10-12T07:06:01.959Z,982.95
2017-10-12T07:07:55.381Z,983.02
2017-10-12T07:08:55.252Z,983.03
2017-10-12T07:10:48.123Z,983.09
2017-10-12T07:11:47.988Z,983.08
2017-10-12T07:13:40.860Z,983.12
2017-10-12T07:14:40.637Z,983.11
2017-10-12T07:16:33.364Z,983.11
2017-10-12T07:17:33.287Z,983.15
2017-10-12T07:19:26.098Z,983.09
2017-10-12T07:20:25.971Z,983.12
2017-10-12T07:22:18.901Z,983.14
2017-10-12T07:23:18.645Z,983.09
2017-10-12T07:25:11.513Z,983.12
2017-10-12T07:26:11.337Z,983.09
2017-10-12T07:28:04.093Z,983.14
2017-10-12T07:29:03.976Z,983.09
2017-10-12T07:30:56.762Z,983.14
2017-10-12T07:31:56.624Z,983.20
2017-10-12T07:33:50.058Z,983.16
2017-10-12T07:34:49.996Z,983.15
2017-10-12T07:36:42.726Z,983.18
2017-10-12T07:37:42.773Z,983.19
2017-10-12T07:39:35.385Z,983.19
2017-10-12T07:40:35.237Z,983.16
2017-10-12T07:42:27.987Z,983.19
2017-10-12T07:43:27.905Z,983.15
2017-10-12T07:45:20.785Z,983.20
2017-10-12T07:46:20.575Z,983.24
2017-10-12T07:48:13.447Z,983.22
2017-10-12T07:49:13.241Z,983.18
2017-10-12T07:51:05.962Z,983.22
2017-10-12T07:52:05.875Z,983.27
2017-10-12T07:53:58.643Z,983.25
2017-10-12T07:54:58.522Z,983.28
2017-10-12T07:56:51.798Z,983.30
2017-10-12T07:57:51.676Z,983.26
2017-10-12T07:59:44.549Z,983.28
2017-10-12T08:00:44.334Z,983.30
2017-10-12T08:02:37.170Z,983.36
2017-10-12T08:03:36.987Z,983.38
2017-10-12T08:05:30.256Z,983.44
2017-10-12T08:06:30.130Z,983.42
2017-10-12T08:08:23.029Z,983.38
2017-10-12T08:09:22.863Z,983.39
2017-10-12T08:11:15.631Z,983.42
2017-10-12T08:12:15.530Z,983.41
2017-10-12T08:14:08.339Z,983.45
2017-10-12T08:15:08.179Z,983.46
2017-10-12T08:17:00.930Z,983.52
2017-10-12T08:18:00.843Z,983.51
2017-10-12T08:19:53.672Z,983.53
2017-10-12T08:20:54.040Z,983.51
2017-10-12T08:22:46.349Z,983.49
2017-10-12T08:23:46.185Z,983.49
2017-10-12T08:25:39.195Z,983.55
2017-10-12T08:26:38.866Z,983.59
2017-10-12T08:28:31.624Z,983.62
2017-10-12T08:29:31.492Z,983.61
2017-10-12T08:31:24.545Z,983.63
2017-10-12T08:32:24.463Z,983.61
2017-10-12T08:34:17.841Z,983.60
2017-10-12T08:35:17.755Z,983.59
2017-10-12T08:37:10.698Z,983.63
2017-10-12T08:38:10.377Z,983.62
2017-10-12T08:40:03.094Z,983.63
2017-10-12T08:41:03.014Z,983.65
2017-10-12T08:42:55.808Z,983.72
2017-10-12T08:43:55.692Z,983.71
2017-10-12T08:45:48.518Z,983.72
2017-10-12T08:46:48.426Z,983.76
2017-10-12T08:48:41.377Z,983.77
2017-10-12T08:49:41.089Z,983.79
2017-10-12T08:51:33.777Z,983.87
2017-10-12T08:52:33.722Z,983.90
2017-10-12T08:54:26.502Z,983.87
2017-10-12T08:55:26.375Z,983.86
2017-10-12T08:57:19.228Z,983.84
2017-10-12T08:58:19.121Z,983.85
2017-10-12T09:00:11.927Z,983.88
2017-10-12T09:01:11.775Z,983.90
2017-10-12T09:03:04.552Z,983.92
2017-10-12T09:04:04.450Z,983.93
2017-10-12T09:05:57.132Z,983.97
2017-10-12T09:06:57.051Z,983.96
2017-10-12T09:08:49.882Z,983.94
2017-10-12T09:09:49.721Z,983.91
2017-10-12T09:11:42.549Z,983.94
2017-10-12T09:12:42.465Z,983.93
2017-10-12T09:14:35.117Z,983.98
2017-10-12T09:15:35.101Z,983.96
2017-10-12T09:17:27.822Z,983.94
2017-10-12T09:18:27.700Z,983.94
2017-10-12T09:20:20.545Z,984.03
2017-10-12T09:21:20.371Z,984.04
2017-10-12T09:23:13.160Z,984.06
2017-10-12T09:24:13.050Z,984.06
2017-10-12T09:26:05.842Z,984.10
2017-10-12T09:27:05.679Z,984.11
2017-10-12T09:28:58.598Z,984.10
2017-10-12T09:29:58.516Z,984.12
2017-10-12T09:31:51.496Z,984.05
2017-10-12T09:32:51.288Z,984.05
2017-10-12T09:34:44.163Z,984.08
2017-10-12T09:35:43.868Z,984.09
2017-10-12T09:37:36.708Z,984.08
2017-10-12T09:38:36.498Z,984.11
2017-10-12T09:40:29.234Z,984.14
2017-10-12T09:41:29.153Z,984.14
2017-10-12T09:43:21.940Z,984.08
2017-10-12T09:44:21.816Z,984.14
2017-10-12T09:46:14.935Z,984.15
2017-10-12T09:47:14.583Z,984.18
2017-10-12T09:49:07.269Z,984.19
2017-10-12T09:50:07.149Z,984.20
2017-10-12T09:52:00.150Z,984.20
2017-10-12T09:52:59.802Z,984.22
2017-10-12T09:54:52.567Z,984.27
2017-10-12T09:55:52.483Z,984.29
2017-10-12T09:57:45.393Z,984.26
2017-10-12T09:58:45.231Z,984.22
2017-10-12T10:00:38.016Z,984.15
2017-10-12T10:01:37.889Z,984.19
2017-10-12T10:03:30.654Z,984.22
2017-10-12T10:04:30.527Z,984.23
2017-10-12T10:06:23.283Z,984.23
2017-10-12T10:07:23.201Z,984.23
2017-10-12T10:09:16.013Z,984.20
2017-10-12T10:10:15.875Z,984.23
2017-10-12T10:12:08.663Z,984.29
2017-10-12T10:13:08.523Z,984.31
2017-10-12T10:15:01.872Z,984.41
2017-10-12T10:16:01.676Z,984.41
2017-10-12T10:17:54.482Z,984.40
2017-10-12T10:18:54.352Z,984.39
2017-10-12T10:20:47.100Z,984.40
2017-10-12T10:21:47.023Z,984.43
2017-10-12T10:23:39.897Z,984.38
2017-10-12T10:24:39.718Z,984.40
2017-10-12T10:26:32.407Z,984.40
2017-10-12T10:27:32.327Z,984.37
2017-10-12T10:29:25.136Z,984.41
2017-10-12T10:30:25.011Z,984.40
2017-10-12T10:32:17.813Z,984.31
2017-10-12T10:33:17.675Z,984.31
2017-10-12T10:35:10.761Z,984.43
2017-10-12T10:36:10.367Z,984.42
2017-10-12T10:38:03.203Z,984.41
2017-10-12T10:39:02.997Z,984.48
2017-10-12T10:40:55.794Z,984.49
2017-10-12T10:41:55.709Z,984.45
2017-10-12T10:43:48.541Z,984.45
2017-10-12T10:44:48.495Z,984.44
2017-10-12T10:46:41.263Z,984.43
2017-10-12T10:47:41.053Z,984.45
2017-10-12T10:49:34.070Z,984.45
2017-10-12T10:50:33.716Z,984.47
2017-10-12T10:52:26.563Z,984.51
2017-10-12T10:53:26.436Z,984.38
2017-10-12T10:55:19.391Z,984.28
2017-10-12T10:56:19.106Z,984.34
2017-10-12T10:58:12.093Z,984.34
2017-10-12T10:59:11.853Z,984.32
2017-10-12T11:01:04.594Z,984.41
2017-10-12T11:02:04.450Z,984.40
2017-10-12T11:03:57.265Z,984.44
2017-10-12T11:04:57.142Z,984.50
2017-10-12T11:06:50.098Z,984.48
2017-10-12T11:07:49.998Z,984.47
2017-10-12T11:09:43.461Z,984.45
2017-10-12T11:10:43.153Z,984.55
2017-10-12T11:12:35.998Z,984.48
2017-10-12T11:13:35.837Z,984.58
2017-10-12T11:15:28.620Z,984.54
2017-10-12T11:16:28.542Z,984.52
2017-10-12T11:18:21.420Z,984.59
2017-10-12T11:19:21.303Z,984.60
2017-10-12T11:21:14.061Z,984.60
2017-10-12T11:22:14.052Z,984.61
2017-10-12T11:24:06.795Z,984.68
2017-10-12T11:25:06.642Z,984.67
2017-10-12T11:26:59.374Z,984.58
2017-10-12T11:27:59.296Z,984.60
2017-10-12T11:29:52.209Z,984.54
2017-10-12T11:30:52.084Z,984.55
2017-10-12T11:32:45.052Z,984.59
2017-10-12T11:33:44.858Z,984.53
2017-10-12T11:35:37.538Z,984.58
2017-10-12T11:36:37.581Z,984.58
2017-10-12T11:38:30.216Z,984.59
2017-10-12T11:39:30.103Z,984.60
2017-10-12T11:41:22.953Z,984.69
2017-10-12T11:42:22.886Z,984.67
2017-10-12T11:44:15.847Z,984.64
2017-10-12T11:45:15.578Z,984.56
2017-10-12T11:47:08.355Z,984.66
2017-10-12T11:48:08.287Z,984.74
2017-10-12T11:50:01.051Z,984.70
2017-10-12T11:51:00.934Z,984.78
2017-10-12T11:52:53.816Z,984.65
2017-10-12T11:53:53.684Z,984.68
2017-10-12T11:55:46.530Z,984.71
2017-10-12T11:56:46.492Z,984.72
2017-10-12T11:58:39.280Z,984.74
2017-10-12T11:59:39.131Z,984.77
2017-10-12T12:01:31.848Z,984.75
2017-10-12T12:02:31.767Z,984.86
2017-10-12T12:04:24.821Z,984.85
2017-10-12T12:05:24.697Z,984.77
2017-10-12T12:07:17.575Z,984.85
2017-10-12T12:08:17.425Z,984.70
2017-10-12T12:10:10.374Z,984.78
2017-10-12T12:11:10.148Z,984.83
2017-10-12T12:13:03.044Z,984.87
2017-10-12T12:14:02.915Z,984.75
2017-10-12T12:15:55.752Z,984.82
2017-10-12T12:16:55.674Z,984.78
2017-10-12T12:18:48.527Z,984.88
2017-10-12T12:19:48.384Z,984.83
2017-10-12T12:21:41.107Z,985.02
2017-10-12T12:22:41.018Z,984.85
2017-10-12T12:24:33.835Z,984.87
2017-10-12T12:25:33.731Z,984.88
2017-10-12T12:27:26.442Z,985.01
2017-10-12T12:28:26.365Z,984.90
2017-10-12T12:30:19.776Z,984.85
2017-10-12T12:31:19.654Z,984.90
2017-10-12T12:33:12.689Z,984.92
2017-10-12T12:34:12.357Z,984.94
2017-10-12T12:36:05.569Z,984.84
2017-10-12T12:37:05.490Z,984.97
2017-10-12T12:38:58.301Z,984.96
2017-10-12T12:39:58.177Z,984.98
2017-10-12T12:41:51.044Z,984.96
2017-10-12T12:42:50.943Z,985.00
2017-10-12T12:44:44.268Z,984.97
2017-10-12T12:45:44.115Z,985.01
2017-10-12T12:47:36.917Z,985.01
2017-10-12T12:48:36.756Z,985.08
2017-10-12T12:50:29.555Z,985.06
2017-10-12T12:51:29.428Z,985.12
2017-10-12T12:53:22.360Z,985.13
2017-10-12T12:54:22.253Z,985.19
2017-10-12T12:56:15.223Z,985.20
2017-10-12T12:57:14.986Z,985.24
2017-10-12T12:59:07.785Z,985.15
2017-10-12T13:00:07.612Z,985.22
2017-10-12T13:02:00.359Z,985.17
2017-10-12T13:03:00.282Z,985.17
2017-10-12T13:04:53.147Z,985.17
2017-10-12T13:05:53.154Z,985.19
2017-10-12T13:07:46.003Z,985.28
2017-10-12T13:08:45.836Z,985.26
2017-10-12T13:10:38.667Z,985.29
2017-10-12T13:11:38.498Z,985.30
2017-10-12T13:13:31.293Z,985.20
2017-10-12T13:14:31.173Z,985.22
2017-10-12T13:16:23.935Z,985.12
2017-10-12T13:17:23.999Z,985.19
2017-10-12T13:19:16.714Z,985.18
2017-10-12T13:20:16.648Z,985.16
2017-10-12T13:22:09.689Z,985.25
2017-10-12T13:23:09.672Z,985.33
2017-10-12T13:25:02.176Z,985.18
2017-10-12T13:26:01.989Z,985.14
2017-10-12T13:27:56.045Z,985.12
2017-10-12T13:28:55.788Z,985.23
2017-10-12T13:30:48.660Z,985.19
2017-10-12T13:31:48.518Z,985.21
2017-10-12T13:33:41.551Z,985.16
2017-10-12T13:34:41.137Z,985.17
2017-10-12T13:36:34.387Z,985.15
2017-10-12T13:37:34.301Z,985.17
2017-10-12T13:39:27.196Z,985.21
2017-10-12T13:40:27.074Z,985.20
2017-10-12T13:42:20.056Z,985.26
2017-10-12T13:43:19.810Z,985.19
2017-10-12T13:45:12.612Z,985.17
2017-10-12T13:46:12.498Z,985.14
2017-10-12T13:48:05.333Z,985.16
2017-10-12T13:49:05.112Z,985.20
2017-10-12T13:50:57.932Z,985.18
2017-10-12T13:51:57.856Z,985.20
2017-10-12T13:53:51.342Z,985.19
2017-10-12T13:54:51.117Z,985.16
2017-10-12T13:56:43.998Z,985.15
2017-10-12T13:57:43.797Z,985.18
2017-10-12T13:59:36.604Z,985.22
2017-10-12T14:00:36.501Z,985.21
2017-10-12T14:02:29.215Z,985.19
2017-10-12T14:03:29.139Z,985.14
2017-10-12T14:05:22.026Z,985.17
2017-10-12T14:06:21.902Z,985.18
2017-10-12T14:08:14.769Z,985.15
2017-10-12T14:09:14.771Z,985.18
2017-10-12T14:11:07.337Z,985.23
2017-10-12T14:12:07.242Z,985.24
2017-10-12T14:14:00.170Z,985.28
2017-10-12T14:15:00.048Z,985.28
2017-10-12T14:16:53.140Z,985.20
2017-10-12T14:17:53.051Z,985.19
2017-10-12T14:19:45.932Z,985.22
2017-10-12T14:20:45.825Z,985.20
2017-10-12T14:22:38.640Z,985.36
2017-10-12T14:23:38.638Z,985.26
2017-10-12T14:25:31.382Z,985.22
2017-10-12T14:26:31.251Z,985.22
2017-10-12T14:28:24.558Z,985.26
2017-10-12T14:29:24.435Z,985.36
2017-10-12T14:31:17.257Z,985.23
2017-10-12T14:32:17.107Z,985.21
2017-10-12T14:34:09.926Z,985.24
2017-10-12T14:35:09.833Z,985.28
2017-10-12T14:37:02.633Z,985.23
2017-10-12T14:38:02.552Z,985.21
2017-10-12T14:39:55.389Z,985.25
2017-10-12T14:40:55.266Z,985.22
2017-10-12T14:42:48.076Z,985.25
2017-10-12T14:43:47.978Z,985.31
2017-10-12T14:45:40.971Z,985.31
2017-10-12T14:46:40.632Z,985.39
2017-10-12T14:48:33.387Z,985.33
2017-10-12T14:49:33.262Z,985.30
2017-10-12T14:51:26.115Z,985.42
2017-10-12T14:52:26.035Z,985.45
2017-10-12T14:54:18.969Z,985.44
2017-10-12T14:55:18.788Z,985.48
2017-10-12T14:57:11.535Z,985.52
2017-10-12T14:58:11.458Z,985.55
2017-10-12T15:00:04.237Z,985.56
2017-10-12T15:01:04.097Z,985.50
2017-10-12T15:02:56.976Z,985.51
2017-10-12T15:03:56.896Z,985.56
2017-10-12T15:05:49.901Z,985.58
2017-10-12T15:06:49.709Z,985.59
2017-10-12T15:08:42.935Z,985.51
2017-10-12T15:09:42.479Z,985.57
2017-10-12T15:11:35.137Z,985.57
2017-10-12T15:12:35.073Z,985.61
2017-10-12T15:14:27.826Z,985.58
2017-10-12T15:15:27.702Z,985.59
2017-10-12T15:17:21.453Z,985.59
2017-10-12T15:18:21.340Z,985.63
2017-10-12T15:20:14.762Z,985.60
2017-10-12T15:21:14.821Z,985.56
2017-10-12T15:23:07.831Z,985.65
2017-10-12T15:24:07.626Z,985.65
2017-10-12T15:26:00.428Z,985.67
2017-10-12T15:27:00.303Z,985.66
2017-10-12T15:28:53.257Z,985.70
2017-10-12T15:29:53.134Z,985.72
2017-10-12T15:31:45.978Z,985.81
2017-10-12T15:32:45.920Z,985.78
2017-10-12T15:34:39.414Z,985.79
2017-10-12T15:35:38.644Z,985.76
2017-10-12T15:37:31.394Z,985.80
2017-10-12T15:38:31.316Z,985.83
2017-10-12T15:40:24.381Z,985.75
2017-10-12T15:41:24.257Z,985.82
2017-10-12T15:43:17.154Z,985.80
2017-10-12T15:44:16.987Z,985.78
2017-10-12T15:46:10.415Z,985.84
2017-10-12T15:47:09.734Z,985.86
2017-10-12T15:49:02.937Z,985.82
2017-10-12T15:50:02.808Z,985.85
2017-10-12T15:51:55.714Z,985.84
2017-10-12T15:52:55.580Z,985.82
2017-10-12T15:54:48.468Z,985.85
2017-10-12T15:55:48.262Z,985.82
2017-10-12T15:57:41.536Z,985.90
2017-10-12T15:58:40.975Z,985.91
2017-10-12T16:00:33.715Z,985.88
2017-10-12T16:01:33.632Z,985.86
2017-10-12T16:03:26.428Z,985.86
2017-10-12T16:04:26.347Z,985.87
2017-10-12T16:06:19.372Z,985.87
2017-10-12T16:07:19.257Z,985.87
2017-10-12T16:09:12.223Z,985.87
2017-10-12T16:10:11.908Z,985.89
2017-10-12T16:12:04.671Z,985.90
2017-10-12T16:13:04.565Z,985.89
2017-10-12T16:14:57.371Z,985.91
2017-10-12T16:15:57.245Z,985.90
2017-10-12T16:17:50.639Z,985.93
2017-10-12T16:18:50.591Z,985.96
2017-10-12T16:20:43.939Z,985.96
2017-10-12T16:21:43.799Z,986.01
2017-10-12T16:23:36.498Z,985.99
2017-10-12T16:24:37.080Z,986.06
2017-10-12T16:26:29.216Z,986.02
2017-10-12T16:29:22.008Z,986.02
2017-10-12T16:30:21.882Z,986.05
2017-10-12T16:32:14.804Z,986.15
2017-10-12T16:33:14.633Z,986.15
2017-10-12T16:35:07.525Z,986.20
2017-10-12T16:36:07.278Z,986.23
2017-10-12T16:37:59.961Z,986.23
2017-10-12T16:38:59.897Z,986.30
2017-10-12T16:40:52.783Z,986.31
2017-10-12T16:41:52.657Z,986.30
2017-10-12T16:43:45.623Z,986.30
2017-10-12T16:44:45.582Z,986.33
2017-10-12T16:46:38.204Z,986.32
2017-10-12T16:47:38.282Z,986.34
2017-10-12T16:49:30.926Z,986.37
2017-10-12T16:52:23.563Z,986.44
2017-10-12T16:53:23.487Z,986.44
2017-10-12T16:55:16.357Z,986.46
2017-10-12T16:56:16.201Z,986.46
2017-10-12T16:58:08.967Z,986.50
2017-10-12T16:59:08.912Z,986.50
2017-10-12T17:01:01.726Z,986.53
2017-10-12T17:02:01.599Z,986.53
2017-10-12T17:03:54.886Z,986.54
2017-10-12T17:04:54.764Z,986.52
2017-10-12T17:06:47.620Z,986.48
2017-10-12T17:07:47.495Z,986.46
2017-10-12T17:09:40.539Z,986.49
2017-10-12T17:10:40.197Z,986.51
2017-10-12T17:12:32.888Z,986.46
2017-10-12T17:13:32.815Z,986.46
2017-10-12T17:15:25.669Z,986.47
2017-10-12T17:16:25.540Z,986.46
2017-10-12T17:18:18.421Z,986.46
2017-10-12T17:19:18.224Z,986.42
2017-10-12T17:21:11.055Z,986.42
2017-10-12T17:22:10.995Z,986.47
2017-10-12T17:24:03.638Z,986.48
2017-10-12T17:25:03.549Z,986.52
2017-10-12T17:26:56.630Z,986.49
2017-10-12T17:27:56.468Z,986.51
2017-10-12T17:29:49.282Z,986.54
2017-10-12T17:30:49.221Z,986.51
2017-10-12T17:32:42.056Z,986.53
2017-10-12T17:33:41.871Z,986.56
2017-10-12T17:35:34.599Z,986.56
2017-10-12T17:36:34.518Z,986.56
2017-10-12T17:38:27.316Z,986.58
2017-10-12T17:39:27.187Z,986.59
2017-10-12T17:42:19.905Z,986.64
2017-10-12T17:44:12.687Z,986.68
2017-10-12T17:45:12.676Z,986.71
2017-10-12T17:47:05.294Z,986.70
2017-10-12T17:48:05.198Z,986.68
2017-10-12T17:49:57.988Z,986.72
2017-10-12T17:50:57.844Z,986.72
2017-10-12T17:52:50.659Z,986.74
2017-10-12T17:53:50.523Z,986.73
2017-10-12T17:55:43.339Z,986.74
2017-10-12T17:56:43.210Z,986.73
2017-10-12T17:58:36.069Z,986.74
2017-10-12T17:59:35.848Z,986.71
2017-10-12T18:01:28.634Z,986.71
2017-10-12T18:02:28.537Z,986.76